Time;durP1;ratioP1;P1;durP2;ratioP2;P2;SDS_P1;SDS_P2;PMS_P1;PMS_P2;Temp;Humidity;BMP_temperature;BMP_pressure;BME280_temperature;BME280_humidity;BME280_pressure;Samples;Min_cycle;Max_cycle;Signal;HPM_P1;HPM_P2
2021/06/17 00:01:49;;;;;;;10.32;4.93;;;;;;;;;;5051584;28;20469;-74
2021/06/17 00:04:15;;;;;;;8.13;4.50;;;;;;;;;;5052647;28;20025;-73
2021/06/17 00:06:41;;;;;;;6.60;4.22;;;;;;;;;;5052915;28;20024;-73
2021/06/17 00:09:07;;;;;;;10.57;4.88;;;;;;;;;;5052783;28;20021;-74
2021/06/17 00:11:33;;;;;;;9.43;4.50;;;;;;;;;;5052803;28;20458;-73
2021/06/17 00:13:59;;;;;;;7.75;4.18;;;;;;;;;;5052638;28;20049;-73
2021/06/17 00:16:25;;;;;;;9.02;4.68;;;24.50;59.60;;;;;;5052646;28;20040;-73
2021/06/17 00:18:51;;;;;;;8.43;5.07;;;23.20;61.70;;;;;;5052385;28;20385;-75
2021/06/17 00:21:17;;;;;;;9.90;5.00;;;23.10;60.90;;;;;;5052782;28;20033;-74
2021/06/17 00:23:43;;;;;;;8.38;4.75;;;;;;;;;;5052793;28;20043;-73
2021/06/17 00:26:09;;;;;;;8.68;4.68;;;;;;;;;;5052979;28;20032;-73
2021/06/17 00:28:35;;;;;;;8.88;4.93;;;;;;;;;;5052345;28;20408;-75
2021/06/17 00:31:01;;;;;;;9.48;4.70;;;;;;;;;;5050951;28;20056;-73
2021/06/17 00:33:28;;;;;;;5.20;4.03;;;;;;;;;;5052394;28;20017;-73
2021/06/17 00:35:54;;;;;;;7.78;4.38;;;;;;;;;;5052306;28;20036;-74
2021/06/17 00:38:20;;;;;;;7.93;4.30;;;;;;;;;;5052347;28;20067;-74
2021/06/17 00:40:47;;;;;;;6.20;3.78;;;;;;;;;;5052095;28;20045;-73
2021/06/17 00:43:13;;;;;;;5.20;4.15;;;;;;;;;;5052333;28;20017;-74
2021/06/17 00:45:41;;;;;;;6.93;4.07;;;;;;;;;;5052791;28;20422;-73
2021/06/17 00:48:07;;;;;;;6.22;4.07;;;;;;;;;;5052101;28;20017;-74
2021/06/17 00:50:41;;;;;;;7.25;4.18;;;;;;;;;;5051684;28;20033;-75
2021/06/17 00:53:11;;;;;;;7.97;3.97;;;;;;;;;;5052430;28;20385;-73
2021/06/17 00:55:38;;;;;;;5.53;3.90;;;;;;;;;;5052220;28;20127;-74
2021/06/17 00:58:04;;;;;;;5.80;3.88;;;;;;;;;;5053184;28;20562;-74
2021/06/17 01:00:30;;;;;;;14.35;4.15;;;;;;;;;;5052014;28;20047;-74
2021/06/17 01:02:56;;;;;;;6.57;4.30;;;;;;;;;;5052505;28;20025;-73
2021/06/17 01:05:23;;;;;;;7.47;4.30;;;;;;;;;;5054035;28;20029;-74
2021/06/17 01:07:49;;;;;;;7.93;4.20;;;;;;;;;;5055462;28;20099;-73
2021/06/17 01:10:25;;;;;;;9.00;4.30;;;;;;;;;;5055530;28;20064;-73
2021/06/17 01:12:56;;;;;;;8.02;4.20;;;;;;;;;;5054992;28;20029;-73
2021/06/17 01:15:23;;;;;;;12.10;4.80;;;;;;;;;;5055226;28;20474;-75
2021/06/17 01:17:52;;;;;;;7.32;4.43;;;;;;;;;;5055404;28;20029;-73
2021/06/17 01:20:36;;;;;;;11.00;4.25;;;;;;;;;;5055361;28;20439;-73
2021/06/17 01:23:20;;;;;;;6.25;4.40;;;;;;;;;;5055457;28;20497;-73
2021/06/17 01:25:56;;;;;;;9.27;4.30;;;;;;;;;;5055375;28;20025;-73
2021/06/17 01:28:23;;;;;;;5.47;4.18;;;;;;;;;;5055149;28;20082;-73
2021/06/17 01:30:49;;;;;;;13.27;7.57;;;;;;;;;;5055346;28;20115;-73
2021/06/17 01:33:15;;;;;;;7.47;4.68;;;;;;;;;;5055048;28;20033;-73
2021/06/17 01:35:44;;;;;;;6.90;4.35;;;;;;;;;;5054541;28;20021;-75
2021/06/17 01:38:12;;;;;;;5.82;4.15;;;;;;;;;;5054751;28;20094;-74
2021/06/17 01:40:38;;;;;;;6.63;4.30;;;;;;;;;;5055015;28;20103;-73
2021/06/17 01:43:04;;;;;;;7.28;4.50;;;;;;;;;;5054901;28;20044;-75
2021/06/17 01:45:31;;;;;;;8.80;4.72;;;;;;;;;;5054774;28;20496;-73
2021/06/17 01:47:58;;;;;;;6.95;4.10;;;;;;;;;;5055041;28;20090;-74
2021/06/17 01:50:26;;;;;;;7.85;4.38;;;;;;;;;;5054511;28;20029;-74
2021/06/17 01:52:54;;;;;;;5.40;4.20;;;;;;;;;;5054873;28;20096;-73
2021/06/17 01:55:20;;;;;;;15.18;4.38;;;;;;;;;;5054469;28;20080;-73
2021/06/17 01:57:46;;;;;;;10.13;4.50;;;;;;;;;;5054684;28;20032;-73
2021/06/17 02:00:13;;;;;;;7.10;4.35;;;;;;;;;;5054759;28;20029;-73
2021/06/17 02:02:39;;;;;;;8.00;4.22;;;;;;;;;;5054706;28;20044;-73
2021/06/17 02:05:07;;;;;;;12.90;4.40;;;;;;;;;;5054676;28;20031;-75
2021/06/17 02:07:34;;;;;;;15.45;4.68;;;;;;;;;;5054879;28;20063;-74
2021/06/17 02:10:00;;;;;;;6.97;3.88;;;;;;;;;;5053367;28;20052;-75
2021/06/17 02:12:26;;;;;;;14.23;4.13;;;;;;;;;;5054128;28;20103;-74
2021/06/17 02:14:53;;;;;;;10.15;4.78;;;;;;;;;;5053198;28;20033;-75
2021/06/17 02:17:20;;;;;;;8.68;4.05;;;;;;;;;;5054377;28;20029;-74
2021/06/17 02:19:48;;;;;;;8.82;4.38;;;;;;;;;;5054204;28;20048;-74
2021/06/17 02:22:15;;;;;;;5.25;4.18;;;;;;;;;;5054398;28;20029;-74
2021/06/17 02:24:45;;;;;;;6.05;4.57;;;;;;;;;;5054135;28;20031;-74
2021/06/17 02:27:14;;;;;;;13.32;4.38;;;;;;;;;;5054158;28;20374;-74
2021/06/17 02:29:48;;;;;;;11.75;5.07;;;;;;;;;;5054271;28;20025;-74
2021/06/17 02:32:21;;;;;;;9.25;4.93;;;;;;;;;;5054307;28;20021;-75
2021/06/17 02:34:49;;;;;;;8.27;4.72;;;;;;;;;;5054433;28;20049;-74
2021/06/17 02:37:16;;;;;;;15.77;4.93;;;;;;;;;;5054195;28;20021;-76
2021/06/17 02:39:42;;;;;;;10.02;5.15;;;;;;;;;;5053634;28;20032;-76
2021/06/17 02:42:09;;;;;;;12.32;5.00;;;;;;;;;;5053967;28;20028;-74
2021/06/17 02:44:35;;;;;;;13.10;4.75;;;;;;;;;;5054071;28;20074;-75
2021/06/17 02:47:01;;;;;;;8.57;4.63;;;;;;;;;;5054118;28;20021;-74
2021/06/17 02:49:27;;;;;;;9.65;4.47;;;;;;;;;;5052584;28;20100;-74
2021/06/17 02:51:53;;;;;;;13.52;5.88;;;;;;;;;;5054108;28;20025;-74
2021/06/17 02:54:19;;;;;;;9.82;4.93;;;;;;;;;;5053732;28;20032;-74
2021/06/17 02:56:45;;;;;;;15.25;5.13;;;;;;;;;;5053605;28;20049;-76
2021/06/17 02:59:11;;;;;;;13.73;5.25;;;;;;;;;;5053443;28;20037;-73
2021/06/17 03:01:43;;;;;;;11.30;5.22;;;;;;;;;;5053759;28;20025;-73
2021/06/17 03:04:13;;;;;;;11.52;4.90;;;;;;;;;;5053687;28;20025;-73
2021/06/17 03:06:40;;;;;;;11.07;5.22;;;;;;;;;;5052367;28;20040;-75
2021/06/17 03:09:15;;;;;;;30.85;7.10;;;;;;;;;;5053299;28;20587;-73
2021/06/17 03:11:46;;;;;;;17.50;5.40;;;;;;;;;;5053415;28;20029;-75
2021/06/17 03:14:33;;;;;;;7.97;4.30;;;;;;;;;;5053668;28;20091;-74
2021/06/17 03:17:00;;;;;;;19.45;6.03;;;;;;;;;;5053522;28;20075;-75
2021/06/17 03:19:27;;;;;;;7.68;4.68;;;;;;;;;;5053054;28;20493;-74
2021/06/17 03:21:55;;;;;;;9.30;4.50;;;;;;;;;;5052896;28;20469;-75
2021/06/17 03:24:22;;;;;;;10.90;4.50;;;;;;;;;;5053416;28;20021;-74
2021/06/17 03:26:49;;;;;;;11.30;4.60;;;;;;;;;;5053023;28;20021;-73
2021/06/17 03:29:17;;;;;;;8.15;5.80;;;;;;;;;;5053131;28;20389;-74
2021/06/17 03:31:44;;;;;;;8.52;4.63;;;;;;;;;;5053081;28;20031;-73
2021/06/17 03:34:10;;;;;;;6.55;4.35;;;;;;;;;;5053146;28;20397;-75
2021/06/17 03:36:37;;;;;;;8.77;4.32;;;;;;;;;;5053002;28;20033;-74
2021/06/17 03:39:05;;;;;;;9.55;4.63;;;;;;;;;;5053064;28;20025;-74
2021/06/17 03:41:31;;;;;;;6.53;3.85;;;;;;;;;;5053237;28;20033;-75
2021/06/17 03:43:57;;;;;;;8.65;4.00;;;;;;;;;;5053127;28;20473;-75
2021/06/17 03:46:24;;;;;;;9.48;4.93;;;;;;;;;;5052947;28;20040;-74
2021/06/17 03:48:51;;;;;;;12.63;4.57;;;;;;;;;;5052938;28;20474;-74
2021/06/17 03:51:17;;;;;;;12.23;4.30;;;;;;;;;;5051689;28;20056;-74
2021/06/17 03:53:45;;;;;;;8.82;4.68;;;;;;;;;;5053065;28;20013;-74
2021/06/17 03:56:12;;;;;;;12.20;4.55;;;;;;;;;;5052639;28;20049;-74
2021/06/17 03:58:39;;;;;;;6.72;4.22;;;;;;;;;;5052823;28;20025;-74
2021/06/17 04:01:06;;;;;;;10.68;4.72;;;;;;;;;;5052561;28;20545;-74
2021/06/17 04:03:33;;;;;;;4.93;4.05;;;;;;;;;;5052863;28;20021;-74
2021/06/17 04:05:59;;;;;;;8.90;3.85;;;;;;;;;;5052805;28;20021;-74
2021/06/17 04:08:35;;;;;;;7.75;4.28;;;;;;;;;;5052736;28;20033;-74
2021/06/17 04:11:02;;;;;;;8.95;4.30;;;;;;;;;;5052790;28;20017;-74
2021/06/17 04:13:29;;;;;;;6.72;4.25;;;;;;;;;;5052828;28;20060;-74
2021/06/17 04:15:55;;;;;;;6.78;4.03;;;;;;;;;;5052728;28;20017;-74
2021/06/17 04:18:24;;;;;;;5.47;4.07;;;;;;;;;;5052788;28;20044;-76
2021/06/17 04:20:50;;;;;;;6.78;4.20;;;;;;;;;;5052506;28;20037;-73
2021/06/17 04:23:19;;;;;;;8.68;4.70;;;;;;;;;;5052716;28;20047;-74
2021/06/17 04:25:45;;;;;;;6.13;4.10;;;;;;;;;;5052699;28;20056;-74
2021/06/17 04:28:12;;;;;;;9.00;4.43;;;;;;;;;;5052484;28;20025;-74
2021/06/17 04:30:38;;;;;;;9.75;4.78;;;;;;;;;;5052345;28;20432;-74
2021/06/17 04:33:07;;;;;;;9.38;4.53;;;;;;;;;;5054586;28;20032;-74
2021/06/17 04:35:34;;;;;;;10.52;4.53;;;;;;;;;;5056428;28;20112;-74
2021/06/17 04:38:00;;;;;;;14.45;4.75;;;;;;;;;;5056487;28;20071;-74
2021/06/17 04:40:26;;;;;;;13.07;4.18;;;;;;;;;;5056221;28;20071;-74
2021/06/17 04:42:56;;;;;;;15.65;4.38;;;;;;;;;;5056235;28;20021;-75
2021/06/17 04:45:23;;;;;;;8.98;4.30;;;;;;;;;;5056197;28;20414;-74
2021/06/17 04:47:49;;;;;;;10.45;4.25;;;;;;;;;;5056060;28;20017;-74
2021/06/17 04:50:16;;;;;;;7.95;4.15;;;;;;;;;;5056078;28;20032;-75
2021/06/17 04:53:04;;;;;;;15.65;5.10;;;;;;;;;;5056102;28;20389;-75
2021/06/17 04:55:30;;;;;;;9.70;4.47;;;;;;;;;;5049134;28;20040;-75
2021/06/17 04:57:56;;;;;;;10.95;4.70;;;;;;;;;;5055736;28;20017;-74
2021/06/17 05:00:22;;;;;;;17.08;4.40;;;;;;;;;;5055835;28;20039;-74
2021/06/17 05:02:49;;;;;;;12.18;4.93;;;;;;;;;;5056190;28;20564;-75
2021/06/17 05:05:15;;;;;;;9.25;4.65;;;;;;;;;;5055762;28;20029;-74
2021/06/17 05:10:47;;;;;;;11.57;4.72;;;;;;;;;;5055872;28;20043;-74
2021/06/17 05:13:11;;;;;;;12.15;5.00;;;;;;;;;;5055839;28;20119;-72
2021/06/17 05:15:37;;;;;;;10.18;4.80;;;;;;;;;;5055515;28;20025;-76
2021/06/17 05:18:03;;;;;;;9.70;4.43;;;;;;;;;;5055560;28;20134;-75
2021/06/17 05:20:30;;;;;;;15.35;5.20;;;;;;;;;;5054077;28;20063;-78
2021/06/17 05:22:56;;;;;;;11.77;4.70;;;;;;;;;;5055492;28;20056;-75
2021/06/17 05:25:22;;;;;;;12.13;4.60;;;;;;;;;;5055419;28;20025;-78
2021/06/17 05:27:48;;;;;;;13.80;4.88;;;;;;;;;;5055342;28;20031;-78
2021/06/17 05:30:15;;;;;;;8.85;5.03;;;;;;;;;;5055099;28;20029;-77
2021/06/17 05:32:44;;;;;;;19.83;4.85;;;;;;;;;;5053847;28;20465;-77
2021/06/17 05:35:10;;;;;;;9.05;4.57;;;;;;;;;;5054992;28;20018;-74
2021/06/17 05:37:36;;;;;;;11.00;4.88;;;;;;;;;;5054953;28;20101;-74
2021/06/17 05:40:03;;;;;;;19.60;5.50;;;;;;;;;;5054925;28;20040;-74
2021/06/17 05:42:30;;;;;;;39.75;6.70;;;;;;;;;;5054865;28;20036;-75
2021/06/17 05:44:56;;;;;;;30.73;5.57;;;;;;;;;;5053978;28;20482;-77
2021/06/17 05:47:22;;;;;;;26.70;5.47;;;23.10;61.20;;;;;;5054835;28;20047;-73
2021/06/17 05:49:48;;;;;;;25.42;5.20;;;22.40;64.10;;;;;;5055838;28;20025;-73
2021/06/17 05:52:14;;;;;;;15.73;5.10;;;22.30;63.90;;;;;;5054784;28;20025;-76
2021/06/17 05:54:40;;;;;;;14.85;4.60;;;22.40;63.70;;;;;;5054771;28;20084;-75
2021/06/17 05:57:06;;;;;;;8.80;4.93;;;22.30;63.80;;;;;;5054660;28;20037;-74
2021/06/17 05:59:32;;;;;;;14.52;5.25;;;22.40;63.90;;;;;;5054686;28;20028;-74
2021/06/17 06:01:58;;;;;;;9.93;4.55;;;22.40;63.90;;;;;;5054615;28;20564;-76
2021/06/17 06:04:24;;;;;;;11.30;4.40;;;22.40;64.20;;;;;;5054598;28;20100;-74
2021/06/17 06:06:49;;;;;;;9.45;4.93;;;22.40;64.40;;;;;;5054421;28;20420;-75
2021/06/17 06:09:15;;;;;;;12.10;5.32;;;22.50;64.60;;;;;;5054328;28;20033;-75
2021/06/17 06:11:41;;;;;;;16.88;4.75;;;22.50;64.50;;;;;;5054104;28;20381;-74
2021/06/17 06:14:07;;;;;;;9.23;4.80;;;22.60;64.50;;;;;;5054174;28;20381;-75
2021/06/17 06:16:35;;;;;;;11.52;4.85;;;22.60;64.20;;;;;;5054301;28;20063;-72
2021/06/17 06:19:00;;;;;;;14.18;5.45;;;22.70;64.20;;;;;;5054116;28;20108;-75
2021/06/17 06:21:26;;;;;;;14.40;5.55;;;22.70;64.20;;;;;;5054384;28;20100;-73
2021/06/17 06:23:52;;;;;;;16.63;10.82;;;22.80;64.10;;;;;;5054087;28;20027;-73
2021/06/17 06:26:17;;;;;;;20.17;10.77;;;22.90;63.80;;;;;;5054346;28;20029;-75
2021/06/17 06:28:43;;;;;;;16.77;7.45;;;22.90;63.90;;;;;;5054090;28;20437;-72
2021/06/17 06:31:10;;;;;;;14.45;7.15;;;23.00;63.90;;;;;;5054345;28;20126;-74
2021/06/17 06:33:36;;;;;;;9.13;6.78;;;23.00;63.80;;;;;;5054087;28;20120;-74
2021/06/17 06:36:02;;;;;;;10.93;5.90;;;23.00;63.70;;;;;;5053930;28;20513;-74
2021/06/17 06:38:27;;;;;;;11.93;5.65;;;23.10;63.80;;;;;;5053757;28;20025;-74
2021/06/17 06:40:53;;;;;;;10.85;4.90;;;23.10;63.90;;;;;;5053700;28;20029;-73
2021/06/17 06:43:19;;;;;;;17.23;4.47;;;23.20;63.80;;;;;;5053816;28;20028;-73
2021/06/17 06:45:46;;;;;;;11.18;4.50;;;23.20;63.50;;;;;;5052287;28;20521;-74
2021/06/17 06:48:12;;;;;;;12.65;4.18;;;23.30;63.60;;;;;;5052532;28;20342;-74
2021/06/17 06:50:38;;;;;;;7.20;3.78;;;23.40;62.70;;;;;;5053572;28;20032;-73
2021/06/17 06:53:04;;;;;;;7.82;4.15;;;23.50;62.80;;;;;;5053676;28;20025;-74
2021/06/17 06:55:30;;;;;;;14.48;4.70;;;23.50;62.50;;;;;;5052885;28;20124;-73
2021/06/17 06:57:56;;;;;;;11.98;4.50;;;23.60;62.60;;;;;;5053379;28;20033;-74
2021/06/17 07:00:22;;;;;;;9.10;4.60;;;23.60;62.60;;;;;;5053096;28;20079;-74
2021/06/17 07:02:48;;;;;;;11.93;4.55;;;23.70;62.30;;;;;;5053202;28;20021;-74
2021/06/17 07:05:14;;;;;;;8.82;4.43;;;;;;;;;;5053276;28;20024;-74
2021/06/17 07:07:41;;;;;;;16.05;5.32;;;;;;;;;;5053150;28;20025;-73
2021/06/17 07:10:07;;;;;;;17.00;5.00;;;;;;;;;;5053486;28;20028;-74
2021/06/17 07:12:33;;;;;;;11.98;4.38;;;;;;;;;;5052037;28;20048;-74
2021/06/17 07:14:59;;;;;;;12.50;4.15;;;23.80;62.20;;;;;;5052338;28;20025;-74
2021/06/17 07:17:26;;;;;;;8.15;5.10;;;;;;;;;;5051603;28;20508;-74
2021/06/17 07:19:56;;;;;;;11.93;4.70;;;;;;;;;;5052938;28;20040;-74
2021/06/17 07:22:25;;;;;;;11.75;4.57;;;;;;;;;;5051288;28;20187;-74
2021/06/17 07:24:54;;;;;;;8.95;4.32;;;;;;;;;;5051498;28;20052;-74
2021/06/17 07:27:21;;;;;;;7.82;4.22;;;;;;;;;;5052300;28;20021;-74
2021/06/17 07:29:47;;;;;;;10.77;4.70;;;;;;;;;;5051940;28;20481;-74
2021/06/17 07:32:13;;;;;;;11.05;4.18;;;;;;;;;;5051763;28;20040;-74
2021/06/17 07:34:42;;;;;;;8.27;4.18;;;;;;;;;;5049869;28;20032;-74
2021/06/17 07:37:08;;;;;;;9.85;4.20;;;;;;;;;;5051916;28;20462;-74
2021/06/17 07:39:34;;;;;;;13.00;3.97;;;;;;;;;;5050511;28;20107;-75
2021/06/17 07:42:00;;;;;;;10.07;4.22;;;;;;;;;;5051604;28;20025;-73
2021/06/17 07:44:26;;;;;;;13.82;4.82;;;;;;;;;;5051385;28;20031;-74
2021/06/17 07:46:52;;;;;;;14.80;4.43;;;;;;;;;;5052166;28;20025;-75
2021/06/17 07:49:18;;;;;;;7.97;4.60;;;;;;;;;;5051560;28;20029;-74
2021/06/17 07:51:45;;;;;;;9.23;4.10;;;;;;;;;;5051910;28;20086;-73
2021/06/17 07:54:11;;;;;;;7.97;4.25;;;;;;;;;;5052383;28;20035;-74
2021/06/17 07:56:37;;;;;;;13.82;4.35;;;;;;;;;;5051345;28;20041;-74
2021/06/17 07:59:03;;;;;;;10.88;4.00;;;;;;;;;;5051058;28;20033;-73
2021/06/17 08:01:29;;;;;;;5.45;3.80;;;;;;;;;;5050870;28;20085;-74
2021/06/17 08:03:55;;;;;;;11.07;4.30;;;;;;;;;;5051085;28;20024;-74
2021/06/17 08:06:22;;;;;;;10.93;4.40;;;;;;;;;;5052480;28;20025;-74
2021/06/17 08:08:48;;;;;;;8.90;4.43;;;;;;;;;;5056116;28;20146;-74
2021/06/17 08:11:14;;;;;;;7.80;4.10;;;;;;;;;;5055443;28;20033;-74
2021/06/17 08:13:40;;;;;;;7.63;4.18;;;;;;;;;;5056244;28;20111;-74
2021/06/17 08:16:06;;;;;;;7.97;4.18;;;;;;;;;;5056053;28;20028;-74
2021/06/17 08:18:32;;;;;;;9.60;4.65;;;;;;;;;;5055577;28;20032;-74
2021/06/17 08:21:01;;;;;;;8.80;4.43;;;;;;;;;;5054889;28;20382;-74
2021/06/17 08:23:28;;;;;;;8.18;3.88;;;;;;;;;;5056396;28;20041;-74
2021/06/17 08:25:54;;;;;;;6.18;3.90;;;;;;;;;;5056737;28;20088;-74
2021/06/17 08:28:25;;;;;;;6.60;3.90;;;;;;;;;;5056583;28;20031;-74
2021/06/17 08:30:51;;;;;;;7.90;3.60;;;;;;;;;;5056630;28;20112;-74
2021/06/17 08:33:17;;;;;;;10.68;3.95;;;;;;;;;;5057430;28;20032;-74
2021/06/17 08:35:43;;;;;;;11.63;4.40;;;;;;;;;;5056697;28;20481;-74
2021/06/17 08:38:09;;;;;;;6.63;3.65;;;;;;;;;;5056437;28;20064;-74
2021/06/17 08:40:35;;;;;;;6.40;4.10;;;;;;;;;;5056438;28;20374;-75
2021/06/17 08:43:02;;;;;;;7.43;3.70;;;;;;;;;;5056481;28;20029;-74
2021/06/17 08:45:28;;;;;;;7.18;3.72;;;;;;;;;;5056532;28;20037;-74
2021/06/17 08:47:55;;;;;;;14.73;3.80;;;;;;;;;;5056449;28;20056;-74
2021/06/17 08:50:21;;;;;;;8.90;3.45;;;;;;;;;;5056187;28;20107;-74
2021/06/17 08:52:47;;;;;;;6.93;3.92;;;;;;;;;;5056173;28;20106;-74
2021/06/17 08:55:16;;;;;;;9.23;3.65;;;;;;;;;;5055892;28;20041;-74
2021/06/17 08:57:43;;;;;;;8.73;3.70;;;;;;;;;;5056025;28;20025;-74
2021/06/17 09:00:21;;;;;;;7.78;3.42;;;;;;;;;;5056076;28;20037;-74
2021/06/17 09:02:58;;;;;;;9.00;3.55;;;;;;;;;;5056223;28;20036;-74
2021/06/17 09:05:25;;;;;;;15.80;3.92;;;;;;;;;;5055897;28;20033;-74
2021/06/17 09:07:52;;;;;;;8.45;3.70;;;;;;;;;;5055950;28;20096;-74
2021/06/17 09:10:18;;;;;;;5.40;3.28;;;;;;;;;;5056154;28;20104;-74
2021/06/17 09:12:45;;;;;;;8.23;3.55;;;;;;;;;;5056194;28;20036;-74
2021/06/17 09:15:11;;;;;;;6.03;3.20;;;;;;;;;;5056031;28;20075;-74
2021/06/17 09:17:38;;;;;;;8.30;3.40;;;;;;;;;;5055152;28;20067;-74
2021/06/17 09:20:04;;;;;;;9.10;3.08;;;;;;;;;;5055691;28;20033;-74
2021/06/17 09:22:31;;;;;;;5.13;3.17;;;;;;;;;;5055705;28;20466;-75
2021/06/17 09:24:57;;;;;;;5.30;3.03;;;;;;;;;;5055670;28;20049;-74
2021/06/17 09:27:31;;;;;;;4.95;3.22;;;;;;;;;;5055659;28;20458;-75
2021/06/17 09:29:58;;;;;;;6.63;2.97;;;;;;;;;;5055549;28;20063;-75
2021/06/17 09:32:29;;;;;;;4.38;3.03;;;;;;;;;;5055337;28;20029;-75
2021/06/17 09:34:55;;;;;;;5.88;2.55;;;;;;;;;;5055358;28;20078;-74
2021/06/17 09:37:37;;;;;;;9.13;2.90;;;;;;;;;;5055583;28;20029;-74
2021/06/17 09:40:22;;;;;;;5.88;3.03;;;;;;;;;;5055699;28;20028;-74
2021/06/17 09:42:48;;;;;;;7.55;3.47;;;;;;;;;;5055607;28;20473;-74
2021/06/17 09:45:22;;;;;;;9.48;2.92;;;;;;;;;;5055347;28;20021;-75
2021/06/17 09:47:48;;;;;;;8.02;2.80;;;;;;;;;;5053947;28;20424;-74
2021/06/17 09:50:28;;;;;;;5.43;2.30;;;;;;;;;;5055065;28;20024;-74
2021/06/17 09:52:54;;;;;;;9.90;2.65;;;;;;;;;;5055182;28;20021;-75
2021/06/17 09:55:40;;;;;;;5.35;2.50;;;;;;;;;;5054873;28;20055;-74
2021/06/17 09:58:29;;;;;;;4.35;2.65;;;;;;;;;;5054909;28;20044;-75
2021/06/17 10:00:56;;;;;;;4.95;2.92;;;;;;;;;;5054560;28;20067;-74
2021/06/17 10:03:23;;;;;;;9.27;2.92;;;;;;;;;;5055164;28;20444;-74
2021/06/17 10:05:49;;;;;;;13.57;3.25;;;;;;;;;;5055107;28;20037;-75
2021/06/17 10:08:15;;;;;;;5.40;2.80;;;;;;;;;;5055150;28;20025;-75
2021/06/17 10:10:41;;;;;;;8.35;3.28;;;;;;;;;;5054932;28;20104;-75
2021/06/17 10:13:08;;;;;;;7.47;2.60;;;;;;;;;;5054669;28;20064;-74
2021/06/17 10:15:35;;;;;;;6.47;3.05;;;;;;;;;;5055005;28;20041;-74
2021/06/17 10:18:01;;;;;;;6.05;2.63;;;;;;;;;;5054889;28;20078;-74
2021/06/17 10:20:28;;;;;;;10.05;2.70;;;;;;;;;;5054719;28;20040;-74
2021/06/17 10:22:55;;;;;;;9.68;2.95;;;;;;;;;;5054751;28;20496;-74
2021/06/17 10:25:32;;;;;;;6.40;3.05;;;;;;;;;;5054388;28;20083;-74
2021/06/17 10:27:58;;;;;;;7.47;2.50;;;;;;;;;;5074324;28;20038;-74
2021/06/17 10:30:43;;;;;;;11.32;3.42;;;;;;;;;;5073382;28;20024;-74
2021/06/17 10:33:29;;;;;;;9.48;3.13;;;;;;;;;;5074140;28;20106;-74
2021/06/17 10:36:37;;;;;;;6.25;2.97;;;;;;;;;;5073166;28;20108;-74
2021/06/17 10:39:09;;;;;;;8.88;2.90;;;;;;;;;;5051820;28;20075;-74
2021/06/17 10:42:05;;;;;;;5.20;2.83;;;;;;;;;;5051876;28;20555;-74
2021/06/17 10:44:36;;;;;;;5.38;3.10;;;;;;;;;;5026657;28;20045;-74
2021/06/17 10:47:06;;;;;;;9.77;3.00;;;;;;;;;;5074218;28;20093;-74
2021/06/17 10:49:50;;;;;;;5.43;3.05;;;;;;;;;;5073893;28;20056;-74
2021/06/17 10:52:23;;;;;;;4.32;2.85;;;;;;;;;;5073580;28;20098;-74
2021/06/17 10:55:05;;;;;;;8.95;2.80;;;;;;;;;;5073517;28;20024;-74
2021/06/17 10:57:50;;;;;;;8.50;2.47;;;;;;;;;;5074132;28;20039;-75
2021/06/17 11:00:26;;;;;;;9.35;3.15;;;;;;;;;;5073728;28;20032;-74
2021/06/17 11:02:58;;;;;;;6.97;2.70;;;;;;;;;;5073375;28;20016;-74
2021/06/17 11:08:15;;;;;;;9.15;3.17;;;;;;;;;;5073328;28;20505;-74
2021/06/17 11:10:48;;;;;;;7.55;3.00;;;;;;;;;;5073390;28;20024;-74
2021/06/17 11:13:34;;;;;;;9.70;3.17;;;;;;;;;;5073543;28;20032;-74
2021/06/17 11:16:20;;;;;;;7.50;3.20;;;;;;;;;;5073204;28;20031;-74
2021/06/17 11:18:52;;;;;;;7.65;3.20;;;;;;;;;;5069555;28;20444;-75
2021/06/17 11:21:22;;;;;;;5.13;2.45;;;;;;;;;;5073517;28;20036;-73
2021/06/17 11:23:48;;;;;;;5.00;2.75;;;;;;;;;;5073231;28;20021;-74
2021/06/17 11:26:35;;;;;;;5.07;3.25;;;;;;;;;;5073469;28;20028;-74
2021/06/17 11:29:01;;;;;;;9.05;2.72;;;;;;;;;;5073598;28;20461;-74
2021/06/17 11:31:39;;;;;;;7.00;3.42;;;;;;;;;;5073673;28;20512;-74
2021/06/17 11:34:05;;;;;;;22.67;3.80;;;;;;;;;;5072680;28;20027;-74
2021/06/17 11:36:31;;;;;;;9.77;2.95;;;;;;;;;;5073430;28;20024;-73
2021/06/17 11:39:04;;;;;;;7.60;3.20;;;;;;;;;;5073086;28;20025;-74
2021/06/17 11:41:31;;;;;;;7.97;3.28;;;;;;;;;;5072697;28;20031;-74
2021/06/17 11:43:57;;;;;;;4.78;3.13;;;;;;;;;;5072851;28;20577;-74
2021/06/17 11:46:25;;;;;;;5.97;3.05;;;;;;;;;;5072843;28;20032;-74
2021/06/17 11:48:52;;;;;;;8.90;3.05;;;;;;;;;;5072780;28;20486;-75
2021/06/17 11:51:18;;;;;;;6.47;2.95;;;;;;;;;;5073116;28;20095;-74
2021/06/17 11:53:49;;;;;;;11.18;2.90;;;;;;;;;;5072923;28;20017;-75
2021/06/17 11:56:23;;;;;;;5.90;3.20;;;;;;;;;;5065469;28;20432;-74
2021/06/17 11:58:49;;;;;;;11.63;3.58;;;;;;;;;;5052742;28;20286;-74
2021/06/17 12:01:15;;;;;;;5.80;3.08;;;;;;;;;;5055593;28;20497;-75
2021/06/17 12:03:52;;;;;;;3.85;3.55;;;;;;;;;;5061293;28;20566;-75
2021/06/17 12:06:18;;;;;;;5.25;3.35;;;;;;;;;;5061027;28;20455;-74
2021/06/17 12:08:44;;;;;;;5.93;3.20;;;;;;;;;;5055000;28;20048;-74
2021/06/17 12:11:20;;;;;;;8.43;2.60;;;;;;;;;;5051366;28;20021;-74
2021/06/17 12:13:50;;;;;;;6.97;2.95;;;;;;;;;;5051448;28;20025;-74
2021/06/17 12:16:19;;;;;;;4.53;3.25;;;;;;;;;;5052737;28;20029;-73
2021/06/17 12:18:45;;;;;;;6.15;3.20;;;;;;;;;;5052704;28;20025;-74
2021/06/17 12:21:11;;;;;;;5.82;3.08;;;;;;;;;;5052446;28;20112;-74
2021/06/17 12:23:37;;;;;;;7.90;2.63;;;;;;;;;;5052293;28;20036;-74
2021/06/17 12:26:09;;;;;;;10.70;3.00;;;;;;;;;;5051970;28;20381;-74
2021/06/17 12:28:35;;;;;;;;;;;;;;;;;;5052924;28;20466;-73
2021/06/17 12:31:01;;;;;;;5.80;2.67;;;;;;;;;;5051216;28;20054;-73
2021/06/17 12:33:29;;;;;;;5.75;2.80;;;;;;;;;;5051350;28;20021;-74
2021/06/17 12:35:57;;;;;;;9.93;3.47;;;;;;;;;;5052339;28;20059;-74
2021/06/17 12:38:23;;;;;;;7.97;3.10;;;;;;;;;;5052295;28;20026;-73
2021/06/17 12:40:49;;;;;;;9.35;3.00;;;;;;;;;;5052066;28;20043;-74
2021/06/17 12:43:16;;;;;;;7.28;2.85;;;;;;;;;;5052239;28;20028;-74
2021/06/17 12:46:03;;;;;;;11.55;2.88;;;;;;;;;;5052144;28;20025;-73
2021/06/17 12:48:46;;;;;;;6.22;2.90;;;;;;;;;;5044191;28;20057;-73
2021/06/17 12:53:57;;;;;;;8.90;3.00;;;24.20;62.30;;;;;;5054448;28;20071;-76
2021/06/17 12:56:23;;;;;;;9.82;3.25;;;30.70;41.70;;;;;;5056089;28;20049;-80
2021/06/17 12:58:53;;;;;;;6.60;2.78;;;30.50;42.60;;;;;;5056201;28;20028;-74
2021/06/17 13:01:24;;;;;;;6.40;2.72;;;30.50;43.30;;;;;;5056032;28;20039;-73
2021/06/17 13:03:53;;;;;;;7.63;2.67;;;30.60;42.50;;;;;;5056235;28;20075;-73
2021/06/17 13:06:38;;;;;;;6.07;2.55;;;30.60;42.20;;;;;;5056074;28;20108;-74
2021/06/17 13:09:17;;;;;;;4.93;2.75;;;30.60;41.50;;;;;;5055649;28;20420;-74
2021/06/17 13:11:43;;;;;;;6.80;2.58;;;30.60;41.40;;;;;;5055598;28;20389;-74
2021/06/17 13:14:09;;;;;;;10.05;2.85;;;30.70;41.10;;;;;;5055590;28;20029;-74
2021/06/17 13:16:35;;;;;;;7.70;2.38;;;30.60;40.10;;;;;;5055579;28;20095;-87
2021/06/17 13:19:11;;;;;;;4.47;2.58;;;30.60;40.00;;;;;;5055590;28;20056;-74
2021/06/17 13:21:38;;;;;;;6.05;2.65;;;30.60;40.20;;;;;;5055130;28;20546;-77
2021/06/17 13:24:18;;;;;;;3.88;2.42;;;30.60;39.70;;;;;;5055104;28;20028;-77
2021/06/17 13:26:44;;;;;;;4.80;2.20;;;30.60;39.90;;;;;;5054624;28;20029;-75
2021/06/17 13:29:14;;;;;;;4.05;1.98;;;30.60;39.60;;;;;;5055166;28;20028;-75
2021/06/17 13:31:40;;;;;;;5.05;2.10;;;30.60;39.50;;;;;;5054849;28;20056;-74
2021/06/17 13:34:08;;;;;;;5.68;2.63;;;30.60;40.50;;;;;;5054964;28;20028;-74
2021/06/17 13:36:35;;;;;;;4.07;2.08;;;30.60;40.80;;;;;;5055286;28;20025;-74
2021/06/17 13:39:01;;;;;;;3.63;2.45;;;30.70;40.60;;;;;;5055075;28;20101;-74
2021/06/17 13:41:27;;;;;;;3.10;2.15;;;30.70;40.60;;;;;;5055130;28;20075;-77
2021/06/17 13:43:53;;;;;;;4.60;2.30;;;30.70;40.00;;;;;;5061191;28;20017;-74
2021/06/17 13:46:19;;;;;;;8.90;2.72;;;30.70;39.30;;;;;;5061526;28;20127;-74
2021/06/17 13:48:45;;;;;;;7.25;2.95;;;30.70;39.10;;;;;;5064832;28;20024;-78
2021/06/17 13:51:13;;;;;;;4.63;2.20;;;30.70;39.60;;;;;;5071934;28;20031;-74
2021/06/17 13:53:39;;;;;;;7.75;2.58;;;30.70;39.70;;;;;;5061795;28;20081;-74
2021/06/17 13:56:06;;;;;;;4.80;2.60;;;30.70;38.90;;;;;;5074507;28;20049;-75
2021/06/17 13:58:33;;;;;;;5.38;2.30;;;30.70;38.90;;;;;;5064783;28;20032;-74
2021/06/17 14:01:01;;;;;;;3.67;2.28;;;30.70;39.30;;;;;;5053558;28;20025;-74
2021/06/17 14:03:27;;;;;;;5.38;2.38;;;30.70;39.10;;;;;;5052824;28;20279;-72
2021/06/17 14:05:53;;;;;;;5.30;2.63;;;30.70;39.00;;;;;;5052381;28;20025;-83
2021/06/17 14:08:18;;;;;;;3.42;2.20;;;30.70;39.30;;;;;;5053588;28;20040;-75
2021/06/17 14:10:44;;;;;;;8.63;2.28;;;30.70;39.10;;;;;;5059845;28;20424;-72
2021/06/17 14:13:10;;;;;;;4.65;2.40;;;30.70;38.70;;;;;;5074249;28;20070;-74
2021/06/17 14:15:37;;;;;;;4.28;2.33;;;30.70;38.80;;;;;;5074078;28;20028;-80
2021/06/17 14:18:04;;;;;;;8.95;2.70;;;30.70;38.50;;;;;;5074074;28;20060;-73
2021/06/17 14:20:32;;;;;;;5.25;2.40;;;30.80;38.60;;;;;;5073124;28;20469;-80
2021/06/17 14:22:58;;;;;;;16.13;2.70;;;30.70;39.20;;;;;;5074920;28;20461;-73
2021/06/17 14:25:24;;;;;;;7.22;2.63;;;30.70;39.30;;;;;;5073745;28;20032;-88
2021/06/17 14:27:50;;;;;;;5.28;1.92;;;30.70;38.80;;;;;;5074225;28;20469;-82